Time;durP1;ratioP1;P1;durP2;ratioP2;P2;SDS_P1;SDS_P2;PMS_P1;PMS_P2;Temp;Humidity;BMP_temperature;BMP_pressure;BME280_temperature;BME280_humidity;BME280_pressure;Samples;Min_cycle;Max_cycle;Signal;HPM_P1;HPM_P2
2021/04/27 00:01:54;;;;;;;4.00;3.60;;;;;;;;;;5008456;28;20628;-45
2021/04/27 00:04:20;;;;;;;3.35;3.15;;;;;;;;;;5009237;28;20171;-45
2021/04/27 00:06:45;;;;;;;4.07;3.30;;;;;;;;;;5008511;28;20219;-44
2021/04/27 00:09:10;;;;;;;5.03;3.40;;;;;;;;;;5009689;28;20166;-44
2021/04/27 00:11:35;;;;;;;3.40;3.10;;;;;;;;;;5007934;28;20810;-44
2021/04/27 00:14:01;;;;;;;3.63;3.27;;;;;;;;;;5009038;28;20209;-43
2021/04/27 00:16:26;;;;;;;3.30;3.10;;;;;;;;;;5008646;28;20169;-44
2021/04/27 00:18:51;;;;;;;3.25;3.03;;;;;;;;;;5009184;28;20276;-43
2021/04/27 00:21:16;;;;;;;3.40;3.10;;;;;;;;;;4998890;28;20169;-44
2021/04/27 00:23:41;;;;;;;4.18;3.72;;;;;;;;;;5005578;28;20272;-44
2021/04/27 00:26:07;;;;;;;3.83;3.43;;;;;;;;;;5008938;28;20181;-44
2021/04/27 00:28:32;;;;;;;4.15;3.80;;;;;;;;;;5008969;28;20529;-44
2021/04/27 00:30:57;;;;;;;4.10;3.70;;;;;;;;;;5009274;28;20180;-43
2021/04/27 00:33:22;;;;;;;3.63;3.33;;;;;;;;;;4996690;28;20311;-44
2021/04/27 00:35:47;;;;;;;4.23;3.83;;;;;;;;;;5007340;28;20180;-44
2021/04/27 00:38:12;;;;;;;4.82;3.53;;;;;;;;;;5008749;28;20173;-45
2021/04/27 00:40:37;;;;;;;3.90;3.40;;;;;;;;;;5008614;28;20184;-44
2021/04/27 00:43:03;;;;;;;3.50;3.20;;;;;;;;;;5015501;28;20176;-44
2021/04/27 00:45:28;;;;;;;3.80;3.40;;;;;;;;;;5006896;28;20642;-44
2021/04/27 00:47:54;;;;;;;3.67;3.37;;;;;;;;;;5006570;28;20264;-44
2021/04/27 00:50:22;;;;;;;3.40;3.20;;;;;;;;;;5006315;28;20794;-45
2021/04/27 00:52:47;;;;;;;3.70;3.40;;;;;;;;;;5008697;28;20739;-44
2021/04/27 00:55:14;;;;;;;3.90;3.60;;;;;;;;;;5008076;28;20732;-44
2021/04/27 00:57:39;;;;;;;3.30;3.10;;;;;;;;;;5008545;28;20519;-44
2021/04/27 01:00:06;;;;;;;4.37;3.40;;;;;;;;;;5008636;28;20658;-45
2021/04/27 01:02:33;;;;;;;3.67;3.33;;;;;;;;;;5007362;28;20307;-44
2021/04/27 01:04:58;;;;;;;5.60;3.73;;;;;;;;;;5008649;28;20592;-45
2021/04/27 01:07:27;;;;;;;3.60;3.30;;;;;;;;;;5006157;28;20964;-49
2021/04/27 01:09:56;;;;;;;4.30;3.47;;;;;;;;;;5005372;28;20232;-45
2021/04/27 01:12:36;;;;;;;5.00;3.60;;;;;;;;;;5007517;28;20674;-45
2021/04/27 01:15:08;;;;;;;3.60;2.67;;;;;;;;;;5008804;28;20681;-45
2021/04/27 01:17:34;;;;;;;4.40;4.00;;;;;;;;;;5007599;28;21179;-44
2021/04/27 01:20:05;;;;;;;3.50;3.30;;;;;;;;;;5008269;28;20677;-45
2021/04/27 01:22:49;;;;;;;3.57;3.27;;;;;;;;;;5007852;28;20606;-45
2021/04/27 01:25:16;;;;;;;3.43;3.23;;;;;;;;;;5002946;28;21134;-45
2021/04/27 01:27:41;;;;;;;6.00;3.60;;;;;;;;;;5011083;28;20642;-44
2021/04/27 01:30:07;;;;;;;4.20;3.20;;;;;;;;;;5012330;28;21229;-44
2021/04/27 01:32:32;;;;;;;4.63;3.40;;;;;;;;;;5011682;28;20201;-45
2021/04/27 01:34:58;;;;;;;3.30;3.03;;;;;;;;;;5011995;28;20212;-45
2021/04/27 01:37:23;;;;;;;3.90;3.60;;;;;;;;;;5011649;28;20223;-49
2021/04/27 01:39:49;;;;;;;4.20;3.80;;;;;;;;;;5011762;28;20177;-44
2021/04/27 01:42:14;;;;;;;3.30;3.10;;;;;;;;;;5010661;28;20180;-45
2021/04/27 01:44:42;;;;;;;3.57;3.37;;;;;;;;;;5011256;28;20627;-44
2021/04/27 01:47:08;;;;;;;3.53;3.23;;;;;;;;;;5011612;28;20197;-44
2021/04/27 01:49:33;;;;;;;4.60;3.23;;;;;;;;;;5010743;28;20642;-44
2021/04/27 01:51:59;;;;;;;5.17;3.47;;;;;;;;;;5011349;28;20734;-44
2021/04/27 01:54:25;;;;;;;3.10;2.90;;;;;;;;;;5011712;28;20180;-44
2021/04/27 01:56:51;;;;;;;3.53;3.23;;;;;;;;;;5011081;28;20554;-44
2021/04/27 01:59:16;;;;;;;4.00;3.60;;;;;;;;;;5009663;28;20607;-44
2021/04/27 02:01:41;;;;;;;3.92;3.63;;;;;;;;;;5007520;28;20200;-44
2021/04/27 02:04:06;;;;;;;3.60;3.30;;;;;;;;;;5012805;28;20205;-44
2021/04/27 02:06:31;;;;;;;8.23;3.60;;;;;;;;;;5011385;28;20639;-45
2021/04/27 02:09:00;;;;;;;3.13;2.90;;;;;;;;;;5011574;28;20189;-45
2021/04/27 02:11:27;;;;;;;3.90;3.43;;;;;;;;;;5013220;28;20243;-45
2021/04/27 02:13:52;;;;;;;5.03;4.00;;;;;;;;;;5009096;28;20649;-45
2021/04/27 02:16:18;;;;;;;3.53;3.22;;;;;;;;;;5003189;28;20614;-44
2021/04/27 02:18:51;;;;;;;4.33;3.33;;;;;;;;;;5008293;28;20180;-45
2021/04/27 02:21:17;;;;;;;4.53;3.90;;;;;;;;;;5011589;28;20603;-45
2021/04/27 02:23:42;;;;;;;6.33;3.57;;;;;;;;;;5010744;28;20950;-44
2021/04/27 02:26:08;;;;;;;3.80;3.47;;;;;;;;;;5011312;28;20600;-44
2021/04/27 02:28:34;;;;;;;3.43;3.13;;;;;;;;;;5010977;28;20632;-45
2021/04/27 02:30:59;;;;;;;3.07;2.80;;;;;;;;;;5010810;28;20434;-45
2021/04/27 02:33:25;;;;;;;3.70;3.40;;;;;;;;;;5006470;28;20744;-45
2021/04/27 02:35:51;;;;;;;3.93;3.03;;;;;;;;;;5008529;28;20205;-45
2021/04/27 02:38:17;;;;;;;3.90;3.60;;;;;;;;;;5004840;28;20552;-45
2021/04/27 02:40:43;;;;;;;3.70;3.40;;;;;;;;;;5007329;28;20603;-44
2021/04/27 02:43:08;;;;;;;6.17;3.43;;;;;;;;;;5001549;28;21182;-43
2021/04/27 02:45:33;;;;;;;3.20;2.93;;;;;;;;;;5010869;28;20181;-43
2021/04/27 02:48:04;;;;;;;6.23;3.40;;;;;;;;;;5010159;28;20395;-44
2021/04/27 02:50:29;;;;;;;3.87;3.47;;;;;;;;;;5008902;28;20592;-43
2021/04/27 02:52:54;;;;;;;6.25;3.50;;;;;;;;;;5010577;28;21002;-43
2021/04/27 02:55:20;;;;;;;4.83;3.33;;;;;;;;;;5010216;28;20699;-43
2021/04/27 02:57:45;;;;;;;3.92;3.60;;;;;;;;;;5010398;28;20184;-43
2021/04/27 03:00:10;;;;;;;3.50;3.30;;;;;;;;;;5009731;28;20230;-43
2021/04/27 03:02:35;;;;;;;4.27;3.87;;;;;;;;;;5009795;28;20179;-43
2021/04/27 03:05:02;;;;;;;3.10;2.77;;;;;;;;;;5010456;28;20194;-43
2021/04/27 03:07:27;;;;;;;3.90;3.60;;;;;;;;;;5010259;28;20661;-43
2021/04/27 03:09:52;;;;;;;6.30;2.97;;;;;;;;;;5008630;28;21223;-43
2021/04/27 03:12:17;;;;;;;5.20;3.60;;;;;;;;;;5010007;28;20226;-43
2021/04/27 03:14:42;;;;;;;3.35;3.03;;;;;;;;;;5010193;28;20183;-44
2021/04/27 03:17:07;;;;;;;3.97;3.60;;;;;;;;;;5005926;28;20179;-43
2021/04/27 03:19:33;;;;;;;5.00;4.32;;;;;;;;;;5009677;28;20206;-44
2021/04/27 03:21:58;;;;;;;5.33;3.53;;;;;;;;;;5010569;28;20181;-48
2021/04/27 03:24:23;;;;;;;5.90;3.23;;;;;;;;;;5009645;28;20210;-43
2021/04/27 03:26:48;;;;;;;4.10;3.45;;;;;;;;;;5009259;28;20646;-43
2021/04/27 03:29:13;;;;;;;5.57;3.70;;;;;;;;;;5007145;28;20177;-43
2021/04/27 03:31:39;;;;;;;3.47;3.17;;;;;;;;;;5005976;28;20261;-44
2021/04/27 03:34:04;;;;;;;4.10;3.78;;;;;;;;;;5008529;28;20214;-44
2021/04/27 03:36:29;;;;;;;3.53;3.23;;;;;;;;;;5009350;28;20206;-44
2021/04/27 03:38:54;;;;;;;3.30;3.10;;;;;;;;;;5009923;28;20249;-44
2021/04/27 03:41:19;;;;;;;4.30;3.40;;;;;;;;;;5009393;28;20682;-44
2021/04/27 03:43:44;;;;;;;3.92;3.55;;;;;;;;;;5004148;28;20196;-45
2021/04/27 03:46:10;;;;;;;3.60;3.30;;;;;;;;;;5004886;28;20274;-44
2021/04/27 03:48:35;;;;;;;3.77;2.97;;;;;;;;;;5006290;28;20187;-44
2021/04/27 03:51:00;;;;;;;3.70;3.30;;;;;;;;;;5005143;28;20179;-44
2021/04/27 03:53:25;;;;;;;3.03;2.83;;;;;;;;;;5006655;28;20262;-44
2021/04/27 03:55:50;;;;;;;3.20;2.95;;;;;;;;;;5005541;28;20180;-44
2021/04/27 03:58:15;;;;;;;4.20;3.87;;;;;;;;;;5003647;28;21035;-43
2021/04/27 04:00:41;;;;;;;4.07;3.67;;;;;;;;;;5005334;28;20184;-43
2021/04/27 04:03:06;;;;;;;4.57;3.97;;;;;;;;;;5005121;28;20199;-43
2021/04/27 04:05:31;;;;;;;3.87;3.57;;;;;;;;;;5007750;28;20191;-44
2021/04/27 04:07:56;;;;;;;4.83;4.43;;;;;;;;;;5007192;28;20184;-43
2021/04/27 04:10:22;;;;;;;5.00;4.33;;;;;;;;;;5008500;28;20288;-43
2021/04/27 04:12:47;;;;;;;4.97;4.50;;;;;;;;;;5008050;28;20253;-43
2021/04/27 04:15:13;;;;;;;4.30;3.97;;;;;;;;;;5008401;28;20182;-44
2021/04/27 04:17:39;;;;;;;4.50;4.03;;;;;;;;;;5004202;28;20182;-43
2021/04/27 04:20:08;;;;;;;3.60;3.37;;;;;;;;;;5009239;28;21198;-43
2021/04/27 04:22:33;;;;;;;3.70;3.40;;;;;;;;;;5004731;28;20718;-43
2021/04/27 04:24:59;;;;;;;4.53;3.77;;;;;;;;;;4997478;28;20606;-43
2021/04/27 04:27:24;;;;;;;4.55;4.15;;;;;;;;;;4998742;28;20192;-45
2021/04/27 04:29:49;;;;;;;5.07;3.83;;;;;;;;;;5008349;28;20676;-43
2021/04/27 04:32:14;;;;;;;3.53;3.33;;;;;;;;;;5010853;28;20235;-43
2021/04/27 04:34:40;;;;;;;4.27;3.97;;;;;;;;;;5006352;28;20171;-43
2021/04/27 04:37:05;;;;;;;4.40;3.97;;;;;;;;;;5005276;28;20193;-43
2021/04/27 04:39:30;;;;;;;4.27;3.90;;;;;;;;;;5005945;28;20603;-42
2021/04/27 04:41:56;;;;;;;4.18;3.83;;;;;;;;;;5011404;28;20718;-43
2021/04/27 04:44:21;;;;;;;6.50;4.45;;;;;;;;;;5005284;28;20169;-43
2021/04/27 04:46:46;;;;;;;4.67;4.20;;;;;;;;;;5014299;28;20204;-43
2021/04/27 04:49:11;;;;;;;4.60;3.95;;;;;;;;;;5016847;28;20181;-44
2021/04/27 04:51:36;;;;;;;5.70;4.60;;;;;;;;;;5004940;28;20200;-43
2021/04/27 04:54:02;;;;;;;5.23;4.73;;;;;;;;;;4995408;28;20208;-44
2021/04/27 04:56:27;;;;;;;7.67;5.43;;;;;;;;;;5004121;28;20891;-44
2021/04/27 04:58:52;;;;;;;8.50;6.03;;;;;;;;;;5001001;28;20164;-43
2021/04/27 05:01:17;;;;;;;5.33;4.83;;;;;;;;;;5005106;28;20646;-44
2021/04/27 05:03:42;;;;;;;5.65;5.15;;;;;;;;;;5000316;28;20261;-44
2021/04/27 05:06:12;;;;;;;5.90;5.13;;;;;;;;;;5002628;28;20276;-44
2021/04/27 05:08:44;;;;;;;4.97;4.57;;;;;;;;;;5001273;28;20175;-44
2021/04/27 05:11:09;;;;;;;7.43;4.70;;;;;;;;;;5004355;28;20634;-43
2021/04/27 05:13:34;;;;;;;5.22;4.72;;;;;;;;;;5004130;28;20654;-43
2021/04/27 05:16:01;;;;;;;5.63;5.13;;;;;;;;;;4999103;28;20192;-43
2021/04/27 05:18:26;;;;;;;6.50;4.23;;;;;;;;;;5005040;28;20181;-43
2021/04/27 05:20:52;;;;;;;5.23;4.67;;;;;;;;;;5004035;28;20595;-43
2021/04/27 05:23:17;;;;;;;5.83;4.50;;;;;;;;;;5006591;28;20263;-43
2021/04/27 05:25:42;;;;;;;5.28;4.65;;;;;;;;;;5006774;28;21235;-42
2021/04/27 05:28:08;;;;;;;5.35;4.32;;;;;;;;;;5007297;28;20182;-43
2021/04/27 05:30:33;;;;;;;5.33;4.60;;;;;;;;;;5007399;28;20184;-43
2021/04/27 05:32:58;;;;;;;5.15;4.65;;;;;;;;;;5007319;28;20247;-43
2021/04/27 05:35:23;;;;;;;6.20;4.13;;;;;;;;;;5007959;28;20191;-44
2021/04/27 05:37:48;;;;;;;5.93;4.87;;;;;;;;;;5007507;28;20296;-43
2021/04/27 05:40:13;;;;;;;4.57;4.10;;;;;;;;;;5006675;28;20231;-44
2021/04/27 05:42:39;;;;;;;6.20;4.30;;;;;;;;;;5006969;28;20383;-44
2021/04/27 05:45:04;;;;;;;5.03;4.40;;;;;;;;;;5007123;28;20205;-45
2021/04/27 05:47:29;;;;;;;6.40;4.97;;;;;;;;;;5007188;28;20180;-43
2021/04/27 05:49:55;;;;;;;5.70;5.13;;;;;;;;;;5006768;28;20184;-44
2021/04/27 05:52:20;;;;;;;5.77;4.80;;;;;;;;;;5007153;28;20339;-44
2021/04/27 05:54:45;;;;;;;5.72;4.90;;;;;;;;;;5006762;28;20177;-44
2021/04/27 05:57:10;;;;;;;5.17;4.70;;;;;;;;;;5007213;28;20275;-44
2021/04/27 05:59:35;;;;;;;5.18;4.70;;;;;;;;;;5006715;28;20173;-44
2021/04/27 06:02:00;;;;;;;5.17;4.63;;;;;;;;;;5006864;28;20935;-44
2021/04/27 06:04:26;;;;;;;6.60;5.03;;;;;;;;;;5005029;28;20239;-44
2021/04/27 06:06:51;;;;;;;5.87;4.80;;;;;;;;;;4987641;28;20211;-44
2021/04/27 06:09:17;;;;;;;5.07;4.57;;;;;;;;;;5001585;28;20231;-44
2021/04/27 06:11:42;;;;;;;7.07;5.30;;;;;;;;;;4999353;28;20341;-44
2021/04/27 06:14:07;;;;;;;7.87;4.87;;;;;;;;;;5006564;28;20606;-44
2021/04/27 06:16:32;;;;;;;5.17;4.77;;;;;;;;;;5007661;28;20230;-44
2021/04/27 06:18:57;;;;;;;7.37;5.50;;;;;;;;;;5007206;28;20502;-44
2021/04/27 06:21:23;;;;;;;6.10;5.50;;;;;;;;;;5007471;28;20190;-45
2021/04/27 06:23:48;;;;;;;5.43;4.90;;;;;;;;;;5007288;28;20269;-42
2021/04/27 06:26:13;;;;;;;4.93;4.53;;;;;;;;;;5006926;28;20282;-43
2021/04/27 06:28:39;;;;;;;5.50;5.00;;;;;;;;;;5006367;28;20193;-43
2021/04/27 06:31:04;;;;;;;5.95;5.05;;;;;;;;;;5006954;28;20284;-45
2021/04/27 06:33:30;;;;;;;6.00;5.40;;;;;;;;;;5007321;28;20219;-44
2021/04/27 06:35:55;;;;;;;7.93;6.00;;;;;;;;;;5006764;28;20232;-43
2021/04/27 06:38:20;;;;;;;6.15;5.60;;;;;;;;;;5006612;28;20190;-44
2021/04/27 06:40:46;;;;;;;6.23;5.63;;;;;;;;;;4996139;28;20178;-44
2021/04/27 06:43:12;;;;;;;8.87;6.37;;;;;;;;;;5006294;28;20723;-43
2021/04/27 06:45:37;;;;;;;10.70;6.30;;;;;;;;;;5006618;28;20211;-43
2021/04/27 06:48:04;;;;;;;6.60;5.43;;;;;;;;;;5007439;28;20235;-44
2021/04/27 06:50:29;;;;;;;8.60;6.27;;;;;;;;;;5007473;28;20184;-44
2021/04/27 06:52:54;;;;;;;9.00;5.93;;;;;;;;;;5008846;28;20650;-43
2021/04/27 06:55:19;;;;;;;6.00;5.40;;;;;;;;;;5007457;28;20181;-43
2021/04/27 06:57:44;;;;;;;6.50;5.45;;;;;;;;;;5006341;28;20203;-44
2021/04/27 07:00:10;;;;;;;6.35;5.28;;;;;;;;;;5006886;28;20187;-44
2021/04/27 07:02:35;;;;;;;6.83;5.53;;;;;;;;;;5003084;28;20237;-44
2021/04/27 07:05:00;;;;;;;5.50;4.83;;;;;;;;;;5004402;28;20178;-44
2021/04/27 07:07:26;;;;;;;6.78;5.15;;;;;;;;;;5006469;28;20648;-44
2021/04/27 07:09:51;;;;;;;8.57;5.60;;;;;;;;;;5009019;28;20200;-44
2021/04/27 07:12:16;;;;;;;7.83;4.70;;;;;;;;;;5008489;28;20734;-44
2021/04/27 07:14:41;;;;;;;7.30;5.50;;;;;;;;;;4990797;28;20235;-49
2021/04/27 07:17:07;;;;;;;5.27;4.77;;;;;;;;;;5001471;28;20185;-44
2021/04/27 07:19:33;;;;;;;7.10;4.93;;;;;;;;;;5007480;28;20189;-44
2021/04/27 07:21:58;;;;;;;7.47;5.00;;;;;;;;;;5007017;28;21157;-44
2021/04/27 07:24:24;;;;;;;4.70;4.30;;;;;;;;;;5006684;28;20180;-44
2021/04/27 07:26:49;;;;;;;5.87;4.93;;;;;;;;;;5008605;28;20189;-43
2021/04/27 07:29:15;;;;;;;5.90;5.30;;;;;;;;;;5007421;28;21173;-44
2021/04/27 07:31:41;;;;;;;5.87;5.27;;;;;;;;;;5008495;28;20231;-44
2021/04/27 07:34:06;;;;;;;5.83;4.63;;;;;;;;;;5008127;28;20214;-44
2021/04/27 07:36:32;;;;;;;4.53;3.97;;;;;;;;;;5008173;28;20265;-44
2021/04/27 07:38:57;;;;;;;6.20;4.80;;;;;;;;;;5003468;28;20185;-44
2021/04/27 07:41:22;;;;;;;5.73;4.57;;;;;;;;;;5001086;28;20178;-43
2021/04/27 07:43:47;;;;;;;4.10;3.80;;;;;;;;;;5008797;28;20180;-43
2021/04/27 07:46:12;;;;;;;4.53;4.20;;;;;;;;;;5008657;28;20172;-43
2021/04/27 07:48:38;;;;;;;4.22;3.75;;;;;;;;;;5006510;28;20194;-43
2021/04/27 07:51:03;;;;;;;5.30;4.43;;;;;;;;;;5001625;28;20536;-43
2021/04/27 07:53:28;;;;;;;7.67;4.00;;;;;;;;;;5008433;28;20205;-43
2021/04/27 07:55:53;;;;;;;4.32;3.85;;;;;;;;;;5008569;28;20181;-43
2021/04/27 07:58:19;;;;;;;6.85;4.35;;;;;;;;;;5008663;28;20167;-43
2021/04/27 08:00:44;;;;;;;4.23;3.70;;;;;;;;;;5008509;28;20190;-43
2021/04/27 08:03:09;;;;;;;3.93;3.50;;;;;;;;;;5008468;28;20227;-43
2021/04/27 08:05:35;;;;;;;4.10;3.40;;;;;;;;;;5008449;28;20189;-44
2021/04/27 08:08:00;;;;;;;3.87;3.57;;;;;;;;;;4992629;28;20621;-43
2021/04/27 08:10:26;;;;;;;3.97;3.53;;;;;;;;;;5003647;28;20299;-43
2021/04/27 08:12:51;;;;;;;4.80;3.20;;;;;;;;;;5004275;28;20698;-44
2021/04/27 08:15:19;;;;;;;3.83;3.30;;;;;;;;;;5008683;28;20180;-43
2021/04/27 08:17:44;;;;;;;4.23;3.20;;;;;;;;;;5009239;28;20177;-43
2021/04/27 08:20:10;;;;;;;3.43;3.13;;;;;;;;;;5009081;28;20934;-44
2021/04/27 08:22:36;;;;;;;3.87;3.43;;;;;;;;;;5008541;28;20667;-42
2021/04/27 08:25:02;;;;;;;3.13;2.83;;;;;;;;;;5006490;28;20610;-43
2021/04/27 08:27:28;;;;;;;3.23;2.93;;;;;;;;;;5008071;28;20181;-43
2021/04/27 08:29:53;;;;;;;3.60;3.03;;;;;;;;;;5008082;28;20634;-43
2021/04/27 08:32:19;;;;;;;3.57;3.27;;;;;;;;;;5008362;28;20624;-44
2021/04/27 08:34:44;;;;;;;3.67;3.10;;;;;;;;;;5009115;28;20311;-47
2021/04/27 08:37:09;;;;;;;4.90;3.00;;;;;;;;;;5008070;28;20249;-46
2021/04/27 08:39:34;;;;;;;3.70;2.92;;;;;;;;;;5008133;28;20190;-43
2021/04/27 08:42:00;;;;;;;3.53;3.23;;;;;;;;;;5006904;28;20543;-44
2021/04/27 08:44:25;;;;;;;3.90;2.93;;;;;;;;;;4996738;28;20641;-45
2021/04/27 08:46:51;;;;;;;3.43;3.00;;;;;;;;;;5008630;28;20229;-45
2021/04/27 08:49:16;;;;;;;3.07;2.77;;;;;;;;;;5005786;28;20178;-45
2021/04/27 08:51:41;;;;;;;3.13;2.83;;;;;;;;;;5006126;28;20197;-44
2021/04/27 08:54:07;;;;;;;3.03;2.83;;;;;;;;;;4988941;28;20362;-44
2021/04/27 08:56:33;;;;;;;4.53;3.43;;;;;;;;;;5002821;28;20261;-44
2021/04/27 08:58:58;;;;;;;4.37;3.87;;;;;;;;;;5005816;28;20634;-44
2021/04/27 09:01:23;;;;;;;3.33;3.13;;;;;;;;;;5005753;28;20172;-44
2021/04/27 09:03:54;;;;;;;4.43;3.03;;;;;;;;;;5004569;28;20797;-45
2021/04/27 09:06:20;;;;;;;5.30;3.53;;;;;;;;;;5007531;28;20281;-44
2021/04/27 09:08:49;;;;;;;3.00;2.70;;;;;;;;;;5008125;28;20632;-45
2021/04/27 09:11:30;;;;;;;6.37;3.30;;;;;;;;;;5007286;28;20670;-44
2021/04/27 09:14:08;;;;;;;4.70;3.00;;;;;;;;;;5008201;28;20670;-45
2021/04/27 09:16:33;;;;;;;3.57;3.27;;;;;;;;;;5007535;28;20653;-44
2021/04/27 09:18:59;;;;;;;3.87;3.43;;;;;;;;;;5007898;28;20608;-43
2021/04/27 09:21:31;;;;;;;3.45;3.15;;;;;;;;;;5007987;28;20178;-43
2021/04/27 09:23:56;;;;;;;3.80;3.50;;;;;;;;;;5008141;28;20212;-43
2021/04/27 09:26:23;;;;;;;3.05;2.85;;;;;;;;;;5007561;28;20641;-43
2021/04/27 09:28:52;;;;;;;5.07;2.70;;;;;;;;;;5008002;28;20190;-43
2021/04/27 09:31:31;;;;;;;3.40;3.07;;;;;;;;;;5007517;28;21167;-43
2021/04/27 09:34:15;;;;;;;3.57;3.27;;;;;;;;;;5007876;28;20634;-44
2021/04/27 09:36:40;;;;;;;2.93;2.73;;;;;;;;;;5007568;28;20599;-44
2021/04/27 09:39:05;;;;;;;3.00;2.80;;;;;;;;;;5007747;28;20614;-45
2021/04/27 09:41:30;;;;;;;3.60;3.30;;;;;;;;;;5007348;28;20176;-45
2021/04/27 09:43:55;;;;;;;3.53;3.13;;;;;;;;;;5007871;28;20185;-44
2021/04/27 09:46:22;;;;;;;3.83;3.25;;;;;;;;;;5007898;28;20203;-44
2021/04/27 09:48:54;;;;;;;6.50;3.10;;;;;;;;;;5009988;28;20247;-44
2021/04/27 09:51:21;;;;;;;3.83;3.47;;;;;;;;;;5011421;28;20579;-44
2021/04/27 09:53:51;;;;;;;2.97;2.77;;;;;;;;;;5011645;28;20689;-44
2021/04/27 09:56:35;;;;;;;3.67;3.37;;;;;;;;;;5010798;28;20599;-45
2021/04/27 09:59:04;;;;;;;5.07;3.07;;;;;;;;;;5011295;28;20592;-44
2021/04/27 10:01:30;;;;;;;3.73;3.00;;;;;;;;;;5011416;28;20599;-45
2021/04/27 10:03:55;;;;;;;3.17;2.90;;;;;;;;;;5011479;28;20569;-45
2021/04/27 10:06:21;;;;;;;3.43;3.13;;;;;;;;;;5010828;28;20572;-43
2021/04/27 10:08:46;;;;;;;3.27;3.00;;;;;;;;;;5011193;28;20191;-44
2021/04/27 10:11:12;;;;;;;3.40;3.20;;;;;;;;;;5010408;28;20188;-46
2021/04/27 10:13:37;;;;;;;3.80;2.60;;;;;;;;;;5011129;28;20228;-44
2021/04/27 10:16:02;;;;;;;5.47;3.80;;;;;;;;;;5010985;28;20172;-44
2021/04/27 10:18:30;;;;;;;4.00;3.53;;;;;;;;;;5010931;28;20445;-44
2021/04/27 10:20:57;;;;;;;3.60;3.30;;;;;;;;;;5010848;28;20494;-44
2021/04/27 10:23:23;;;;;;;3.93;3.53;;;;;;;;;;5010894;28;20574;-44
2021/04/27 10:25:51;;;;;;;4.88;3.15;;;;;;;;;;5010564;28;20666;-43
2021/04/27 10:28:16;;;;;;;4.03;3.50;;;;;;;;;;5010402;28;20184;-44
2021/04/27 10:30:45;;;;;;;3.63;3.30;;;;;;;;;;5010671;28;20602;-43
2021/04/27 10:33:11;;;;;;;3.77;3.47;;;;;;;;;;5010637;28;20215;-44
2021/04/27 10:35:57;;;;;;;3.90;3.60;;;;;;;;;;5010308;28;20579;-44
2021/04/27 10:38:22;;;;;;;3.90;3.60;;;;;;;;;;5010270;28;20604;-45
2021/04/27 10:40:58;;;;;;;3.55;3.25;;;;;;;;;;5010261;28;20592;-45
2021/04/27 10:43:24;;;;;;;3.97;3.30;;;;;;;;;;5007921;28;20215;-45
2021/04/27 10:45:50;;;;;;;2.80;2.60;;;;;;;;;;5010546;28;20611;-44
2021/04/27 10:48:29;;;;;;;3.60;3.30;;;;;;;;;;5009070;28;20748;-44
2021/04/27 10:50:54;;;;;;;3.43;3.13;;;;;;;;;;5010173;28;20177;-44
2021/04/27 10:53:30;;;;;;;2.60;2.40;;;;;;;;;;5009973;28;20642;-44
2021/04/27 10:55:55;;;;;;;5.00;3.70;;;;;;;;;;5009760;28;20184;-45
2021/04/27 10:58:41;;;;;;;4.25;3.30;;;;;;;;;;5009944;28;20583;-44
2021/04/27 11:01:20;;;;;;;3.87;3.30;;;;;;;;;;5010026;28;20208;-43
2021/04/27 11:03:50;;;;;;;3.30;2.90;;;;;;;;;;5010320;28;20930;-43
2021/04/27 11:06:15;;;;;;;4.00;2.93;;;;;;;;;;5009653;28;20719;-44
2021/04/27 11:08:48;;;;;;;3.93;3.50;;;;;;;;;;5010254;28;21151;-44
2021/04/27 11:11:39;;;;;;;3.63;3.13;;;;;;;;;;5009114;28;20204;-44
2021/04/27 11:14:17;;;;;;;3.40;3.10;;;;;;;;;;5009541;28;20690;-45
2021/04/27 11:16:43;;;;;;;3.20;3.00;;;;;;;;;;5009981;28;20623;-44
2021/04/27 11:19:09;;;;;;;3.23;3.03;;;;;;;;;;5009838;28;20576;-45
2021/04/27 11:21:34;;;;;;;3.60;3.30;;;;;;;;;;5009301;28;20606;-45
2021/04/27 11:24:02;;;;;;;3.77;3.37;;;;;;;;;;5010066;28;20688;-45
2021/04/27 11:26:33;;;;;;;3.33;3.03;;;;;;;;;;5009349;28;20173;-44
2021/04/27 11:29:05;;;;;;;3.60;3.30;;;;;;;;;;5009809;28;20704;-44
2021/04/27 11:31:31;;;;;;;3.57;3.27;;;;;;;;;;5009138;28;20669;-43
2021/04/27 11:34:00;;;;;;;3.03;2.77;;;;;;;;;;5009501;28;20640;-44
2021/04/27 11:36:36;;;;;;;3.80;2.80;;;;;;;;;;5009285;28;20189;-44
2021/04/27 11:39:20;;;;;;;3.70;3.40;;;;;;;;;;5009410;28;20599;-44
2021/04/27 11:41:48;;;;;;;3.57;3.27;;;;;;;;;;5008799;28;20711;-44
2021/04/27 11:44:14;;;;;;;3.10;2.90;;;;;;;;;;5009278;28;20603;-44
2021/04/27 11:46:58;;;;;;;3.53;2.90;;;;;;;;;;5009200;28;21166;-45
2021/04/27 11:49:41;;;;;;;3.80;3.50;;;;;;;;;;5009256;28;20643;-45
2021/04/27 11:52:06;;;;;;;3.80;3.50;;;;;;;;;;5008889;28;20691;-45
2021/04/27 11:54:35;;;;;;;4.47;3.40;;;;;;;;;;5009157;28;20738;-44
2021/04/27 11:57:00;;;;;;;4.00;3.60;;;;;;;;;;5007252;28;20182;-44
2021/04/27 11:59:25;;;;;;;3.47;3.17;;;;;;;;;;5009165;28;20653;-45
2021/04/27 12:01:58;;;;;;;3.60;3.38;;;;;;;;;;5008879;28;20251;-45
2021/04/27 12:04:24;;;;;;;4.83;4.10;;;;;;;;;;5009018;28;20723;-44
2021/04/27 12:06:57;;;;;;;3.60;3.30;;;;;;;;;;5009205;28;20569;-45
2021/04/27 12:09:22;;;;;;;4.30;3.90;;;;;;;;;;5008946;28;20715;-44
2021/04/27 12:11:48;;;;;;;4.10;3.70;;;;;;;;;;5007483;28;20755;-44
2021/04/27 12:14:15;;;;;;;3.83;3.50;;;;;;;;;;5008323;28;20283;-44
2021/04/27 12:16:41;;;;;;;4.27;3.97;;;;;;;;;;5008388;28;20585;-44
2021/04/27 12:19:11;;;;;;;4.90;4.53;;;;;;;;;;5008909;28;20660;-44
2021/04/27 12:21:39;;;;;;;3.60;3.30;;;;;;;;;;5007743;28;20700;-44
2021/04/27 12:24:11;;;;;;;3.13;2.83;;;;;;;;;;5008697;28;20589;-45
2021/04/27 12:26:37;;;;;;;3.97;3.37;;;;;;;;;;5008392;28;20609;-45
2021/04/27 12:29:02;;;;;;;5.17;3.30;;;;;;;;;;5008627;28;20580;-44
2021/04/27 12:31:28;;;;;;;3.47;2.97;;;;;;;;;;5007902;28;20612;-45
2021/04/27 12:33:58;;;;;;;3.13;2.70;;;;;;;;;;5008646;28;20209;-45
2021/04/27 12:36:35;;;;;;;3.57;3.27;;;;;;;;;;5008361;28;20627;-44
2021/04/27 12:39:01;;;;;;;3.83;3.53;;;;;;;;;;5008492;28;20591;-43
2021/04/27 12:41:40;;;;;;;5.20;3.10;;;;;;;;;;5007457;28;20923;-44
2021/04/27 12:44:31;;;;;;;3.30;3.00;;;;;;;;;;5008581;28;20651;-44
2021/04/27 12:46:57;;;;;;;3.53;3.23;;;;;;;;;;5007987;28;20820;-44
2021/04/27 12:49:29;;;;;;;3.70;3.00;;;;;;;;;;5008115;28;21150;-45
2021/04/27 12:51:56;;;;;;;3.43;3.20;;;;;;;;;;5006973;28;20192;-44
2021/04/27 12:54:25;;;;;;;3.40;3.10;;;;;;;;;;5008095;28;20675;-44
2021/04/27 12:57:10;;;;;;;3.50;3.03;;;;;;;;;;5007962;28;20596;-44
2021/04/27 12:59:36;;;;;;;3.13;2.93;;;;;;;;;;5008251;28;20576;-45
2021/04/27 13:02:05;;;;;;;4.20;3.40;;;;;;;;;;5008411;28;20664;-45
2021/04/27 13:04:31;;;;;;;3.03;2.83;;;;;;;;;;5007907;28;20676;-45
2021/04/27 13:06:57;;;;;;;4.00;3.10;;;;;;;;;;5007715;28;20712;-46
2021/04/27 13:09:26;;;;;;;3.63;3.33;;;;;;;;;;5007963;28;20212;-45
2021/04/27 13:11:59;;;;;;;4.13;3.73;;;;;;;;;;5007677;28;20234;-45
2021/04/27 13:14:38;;;;;;;3.40;3.10;;;;;;;;;;5007634;28;20636;-45
2021/04/27 13:17:04;;;;;;;3.63;3.33;;;;;;;;;;5008110;28;20891;-44
2021/04/27 13:19:29;;;;;;;3.53;3.23;;;;;;;;;;5007314;28;21065;-45
2021/04/27 13:22:07;;;;;;;7.17;3.27;;;;;;;;;;5009270;28;20604;-45
2021/04/27 13:24:36;;;;;;;3.07;2.87;;;;;;;;;;5013404;28;20194;-44
2021/04/27 13:27:01;;;;;;;3.80;3.07;;;;;;;;;;5021392;28;20640;-45
2021/04/27 13:29:26;;;;;;;3.50;3.27;;;;;;;;;;5011469;28;20652;-45
2021/04/27 13:32:09;;;;;;;3.13;2.88;;;;;;;;;;5011332;28;20229;-43
2021/04/27 13:34:34;;;;;;;3.30;3.00;;;;;;;;;;5011522;28;20665;-44
2021/04/27 13:36:59;;;;;;;4.13;3.80;;;;;;;;;;5011095;28;20956;-43
2021/04/27 13:39:24;;;;;;;3.85;3.28;;;;;;;;;;5010285;28;20932;-45
2021/04/27 13:41:49;;;;;;;4.53;3.25;;;;;;;;;;5010472;28;20177;-44
2021/04/27 13:44:15;;;;;;;4.83;3.70;;;;;;;;;;5009890;28;20182;-45
2021/04/27 13:46:40;;;;;;;5.88;3.95;;;;;;;;;;5009520;28;20653;-46
2021/04/27 13:49:05;;;;;;;3.95;3.65;;;;;;;;;;5012426;28;20181;-44
2021/04/27 13:51:30;;;;;;;2.92;2.72;;;;;;;;;;5011081;28;20189;-44
2021/04/27 13:53:55;;;;;;;3.97;3.20;;;;;;;;;;5011173;28;20760;-44
2021/04/27 13:56:20;;;;;;;4.40;4.00;;;;;;;;;;5005698;28;20174;-44
2021/04/27 13:58:45;;;;;;;3.55;3.35;;;;;;;;;;5011070;28;20253;-45
2021/04/27 14:01:10;;;;;;;3.53;3.22;;;;;;;;;;5008848;28;20258;-44
2021/04/27 14:03:36;;;;;;;3.87;3.30;;;;;;;;;;5005312;28;20186;-45
2021/04/27 14:06:01;;;;;;;4.00;3.63;;;;;;;;;;5010340;28;20203;-45
2021/04/27 14:08:26;;;;;;;3.70;3.40;;;;;;;;;;5010807;28;20205;-45
2021/04/27 14:10:52;;;;;;;3.35;3.05;;;;;;;;;;5010226;28;20632;-45
2021/04/27 14:13:17;;;;;;;4.17;3.77;;;;;;;;;;5011224;28;20317;-46
2021/04/27 14:15:44;;;;;;;5.10;4.70;;;;;;;;;;5007775;28;20598;-45
2021/04/27 14:18:11;;;;;;;4.90;4.40;;;;;;;;;;5011093;28;20271;-44
2021/04/27 14:20:36;;;;;;;4.70;4.00;;;;;;;;;;5010058;28;21244;-45
2021/04/27 14:23:04;;;;;;;3.77;3.47;;;;;;;;;;5010109;28;20605;-45
2021/04/27 14:25:29;;;;;;;5.43;3.60;;;;;;;;;;5010228;28;20174;-45
2021/04/27 14:27:55;;;;;;;4.03;3.73;;;;;;;;;;5008922;28;21510;-45
2021/04/27 14:30:20;;;;;;;3.77;3.47;;;;;;;;;;5009405;28;20232;-44
2021/04/27 14:32:46;;;;;;;4.33;3.47;;;;;;;;;;5009391;28;20207;-45
2021/04/27 14:35:13;;;;;;;3.50;3.30;;;;;;;;;;5009696;28;20633;-45
2021/04/27 14:37:39;;;;;;;3.50;3.20;;;;;;;;;;5010368;28;20673;-44
2021/04/27 14:40:05;;;;;;;3.70;3.40;;;;;;;;;;5010730;28;20689;-44
2021/04/27 14:42:31;;;;;;;4.27;3.90;;;;;;;;;;5009336;28;20195;-44